Time;durP1;ratioP1;P1;durP2;ratioP2;P2;SDS_P1;SDS_P2;PMS_P1;PMS_P2;Temp;Humidity;BMP_temperature;BMP_pressure;BME280_temperature;BME280_humidity;BME280_pressure;Samples;Min_cycle;Max_cycle;Signal;HPM_P1;HPM_P2
2023/12/30 00:02:05;;;;;;;13.68;12.15;;;;;;;6.39;62.96;99037.19;5150062;27;20291;-69
2023/12/30 00:04:31;;;;;;;13.05;11.70;;;;;;;6.37;62.82;99036.41;5149676;27;20059;-69
2023/12/30 00:06:58;;;;;;;13.27;11.60;;;;;;;6.38;62.39;99034.63;5150005;27;20104;-69
2023/12/30 00:09:25;;;;;;;12.40;11.18;;;;;;;6.38;62.53;99034.63;5149322;27;20303;-69
2023/12/30 00:11:51;;;;;;;14.38;12.20;;;;;;;6.37;62.49;99025.88;5132151;27;20055;-68
2023/12/30 00:14:19;;;;;;;14.50;11.88;;;;;;;6.36;62.62;99032.06;5149565;27;20069;-69
2023/12/30 00:16:46;;;;;;;13.18;11.38;;;;;;;6.32;62.71;99038.38;5149833;27;20291;-69
2023/12/30 00:19:13;;;;;;;15.38;11.73;;;;;;;6.27;62.87;99039.50;5149102;27;20176;-69
2023/12/30 00:21:39;;;;;;;14.55;11.68;;;;;;;6.04;62.99;99006.25;5149152;27;20084;-69
2023/12/30 00:24:06;;;;;;;12.88;10.48;;;;;;;6.14;63.29;99038.31;5149362;27;20040;-69
2023/12/30 00:26:33;;;;;;;15.38;12.63;;;;;;;6.20;63.28;99038.03;5148943;27;20055;-70
2023/12/30 00:29:00;;;;;;;14.13;11.88;;;;;;;6.21;62.79;99037.13;5149047;27;20299;-69
2023/12/30 00:31:29;;;;;;;14.35;11.57;;;;;;;6.13;63.21;99034.81;5149009;27;20192;-69
2023/12/30 00:33:57;;;;;;;14.05;11.85;;;;;;;6.14;63.22;99031.25;5149241;27;20092;-69
2023/12/30 00:36:24;;;;;;;20.40;16.90;;;;;;;6.08;65.05;99021.00;5148928;27;20070;-66
2023/12/30 00:38:53;;;;;;;21.23;15.80;;;;;;;5.87;65.88;99037.69;5149131;27;20203;-66
2023/12/30 00:41:19;;;;;;;16.15;13.07;;;;;;;5.94;65.06;99025.97;5149266;27;20336;-69
2023/12/30 00:43:46;;;;;;;15.80;12.65;;;;;;;5.97;64.45;99026.72;5148694;27;20326;-69
2023/12/30 00:46:13;;;;;;;14.98;11.88;;;;;;;5.97;64.34;99039.88;5148909;27;20043;-69
2023/12/30 00:48:41;;;;;;;12.85;11.20;;;;;;;6.07;63.81;99035.94;5148935;27;20051;-69
2023/12/30 00:51:07;;;;;;;14.52;12.13;;;;;;;6.06;63.69;99025.47;5149119;27;20035;-69
2023/12/30 00:53:34;;;;;;;12.05;10.77;;;;;;;6.01;63.90;99028.28;5148609;27;20175;-69
2023/12/30 00:56:00;;;;;;;14.68;11.02;;;;;;;6.05;63.84;99032.50;5130446;27;20237;-69
2023/12/30 00:58:27;;;;;;;13.32;11.48;;;;;;;5.94;63.93;99024.22;5148367;27;20043;-69
2023/12/30 01:00:54;;;;;;;13.95;11.30;;;;;;;5.98;63.92;99027.56;5148340;27;20088;-69
2023/12/30 01:03:20;;;;;;;13.18;11.18;;;;;;;5.97;63.92;99033.75;5130306;27;20047;-69
2023/12/30 01:05:48;;;;;;;13.80;11.43;;;;;;;5.80;63.96;99000.25;5148564;27;20099;-69
2023/12/30 01:08:15;;;;;;;13.05;11.07;;;;;;;5.97;63.94;99028.47;5148510;27;20042;-69
2023/12/30 01:10:42;;;;;;;12.65;11.05;;;;;;;5.99;63.94;99027.50;5130456;27;20043;-69
2023/12/30 01:13:09;;;;;;;13.52;11.50;;;;;;;5.96;63.81;99030.25;5148433;27;20042;-68
2023/12/30 01:15:36;;;;;;;16.92;13.02;;;;;;;5.97;64.09;99041.63;5148082;27;20378;-68
2023/12/30 01:18:03;;;;;;;13.93;11.85;;;;;;;5.96;64.12;99046.03;5148345;27;20110;-69
2023/12/30 01:20:29;;;;;;;15.93;11.95;;;;;;;5.90;64.47;99048.06;5148239;27;20088;-69
2023/12/30 01:22:58;;;;;;;13.57;11.63;;;;;;;5.84;64.73;99049.19;5148269;27;20096;-69
2023/12/30 01:25:24;;;;;;;15.20;13.27;;;;;;;5.89;64.64;99047.22;5148234;27;20092;-69
2023/12/30 01:27:51;;;;;;;12.82;11.20;;;;;;;5.94;64.47;99047.88;5147899;27;20303;-69
2023/12/30 01:30:17;;;;;;;13.82;11.57;;;;;;;5.93;64.64;99053.22;5148048;27;20091;-69
2023/12/30 01:32:45;;;;;;;12.07;10.80;;;;;;;5.92;64.57;99062.00;5148019;27;20211;-69
2023/12/30 01:35:12;;;;;;;11.75;10.30;;;;;;;5.93;64.89;99055.84;5147673;27;20292;-68
2023/12/30 01:37:40;;;;;;;10.00;8.32;;;;;;;5.92;65.05;99041.81;5147923;27;20076;-68
2023/12/30 01:40:09;;;;;;;10.93;8.85;;;;;;;5.99;64.52;99059.06;5147817;27;20043;-69
2023/12/30 01:42:36;;;;;;;10.25;8.98;;;;;;;6.03;64.62;99060.66;5147541;27;20248;-68
2023/12/30 01:45:03;;;;;;;10.88;8.65;;;;;;;6.00;64.70;99050.25;5130013;27;20035;-69
2023/12/30 01:47:29;;;;;;;10.10;8.65;;;;;;;6.04;64.76;99057.09;5147743;27;20110;-69
2023/12/30 01:49:56;;;;;;;9.77;8.02;;;;;;;6.06;64.73;99052.63;5147890;27;20295;-69
2023/12/30 01:52:23;;;;;;;11.02;8.68;;;;;;;6.06;64.79;99047.38;5147363;27;20043;-69
2023/12/30 01:54:50;;;;;;;8.48;7.57;;;;;;;6.12;64.53;99041.00;5147611;27;20104;-69
2023/12/30 01:57:19;;;;;;;9.00;8.10;;;;;;;6.18;64.39;99029.34;5148183;27;20054;-68
2023/12/30 01:59:46;;;;;;;7.28;6.07;;;;;;;6.25;64.53;99033.44;5147178;27;20043;-69
2023/12/30 02:02:12;;;;;;;7.70;6.38;;;;;;;6.27;64.46;99021.94;5147497;27;20088;-69
2023/12/30 02:04:39;;;;;;;8.85;5.68;;;;;;;6.29;64.52;99037.66;5147432;27;20039;-69
2023/12/30 02:07:06;;;;;;;8.00;6.43;;;;;;;6.16;65.09;99003.09;5147409;27;20229;-69
2023/12/30 02:09:33;;;;;;;7.88;6.13;;;;;;;6.38;64.70;99039.88;5146715;27;20237;-69
2023/12/30 02:11:59;;;;;;;9.50;6.25;;;;;;;6.41;64.39;99031.84;5147614;27;20207;-69
2023/12/30 02:14:29;;;;;;;8.98;6.53;;;;;;;6.45;64.56;99028.16;5147228;27;20307;-70
2023/12/30 02:16:56;;;;;;;7.72;6.28;;;;;;;6.50;64.54;99042.00;5147258;27;20057;-70
2023/12/30 02:19:22;;;;;;;6.72;5.43;;;;;;;6.55;64.48;99028.63;5147215;27;20054;-70
2023/12/30 02:21:50;;;;;;;5.80;4.25;;;;;;;6.62;64.85;99017.75;5146855;27;20039;-70
2023/12/30 02:24:20;;;;;;;6.13;4.10;;;;;;;6.70;64.92;99025.31;5147117;27;20095;-69
2023/12/30 02:26:47;;;;;;;4.78;3.63;;;;;;;6.78;64.77;99017.91;5146775;27;20114;-69
2023/12/30 02:29:13;;;;;;;3.88;3.08;;;;;;;6.50;64.58;98963.00;5147391;27;20042;-69
2023/12/30 02:31:46;;;;;;;4.35;2.85;;;;;;;6.92;64.97;99018.19;5146738;27;20184;-69
2023/12/30 02:34:14;;;;;;;4.45;2.67;;;;;;;7.02;64.44;99016.84;5146767;27;20110;-69
2023/12/30 02:36:40;;;;;;;3.25;2.40;;;;;;;7.07;64.60;99021.91;5146971;27;20054;-69
2023/12/30 02:39:07;;;;;;;3.75;2.40;;;;;;;7.14;64.57;99028.59;5146955;27;20215;-69
2023/12/30 02:41:35;;;;;;;3.65;2.65;;;;;;;7.19;64.40;99009.94;5146815;27;20039;-70
2023/12/30 02:44:03;;;;;;;3.45;2.25;;;;;;;7.24;64.18;99008.78;5146858;28;20108;-70
2023/12/30 02:46:30;;;;;;;3.33;2.08;;;;;;;7.30;64.15;99002.38;5146530;28;20215;-70
2023/12/30 02:48:57;;;;;;;3.55;2.08;;;;;;;7.35;64.09;99001.25;5147123;28;20092;-69
2023/12/30 02:51:24;;;;;;;4.03;3.35;;;;;;;7.40;63.87;99003.69;5147063;28;20054;-69
2023/12/30 02:53:51;;;;;;;3.75;2.67;;;;;;;7.46;63.67;98992.84;5146801;28;20039;-70
2023/12/30 02:56:21;;;;;;;3.95;2.15;;;;;;;7.50;63.62;98990.91;5146518;28;20360;-70
2023/12/30 02:58:53;;;;;;;3.30;2.20;;;;;;;7.56;63.49;98986.19;5147063;28;20062;-70
2023/12/30 03:01:20;;;;;;;3.30;2.30;;;;;;;7.64;63.32;98988.44;5128415;28;20046;-70
2023/12/30 03:03:47;;;;;;;2.85;2.00;;;;;;;7.37;62.95;98930.84;5146419;28;20043;-69
2023/12/30 03:06:15;;;;;;;2.72;1.90;;;;;;;7.82;63.03;98986.69;5146421;28;20047;-70
2023/12/30 03:08:42;;;;;;;3.10;1.83;;;;;;;7.90;62.87;98989.78;5146649;28;20054;-70
2023/12/30 03:11:09;;;;;;;2.33;1.65;;;;;;;7.93;62.56;98989.66;5146397;28;20303;-69
2023/12/30 03:13:36;;;;;;;2.90;2.00;;;;;;;7.99;62.59;98986.69;5128953;28;20043;-69
2023/12/30 03:16:05;;;;;;;3.20;2.00;;;;;;;8.01;62.27;98985.69;5146409;28;20043;-69
2023/12/30 03:18:32;;;;;;;2.97;2.00;;;;;;;8.03;61.92;98988.25;5146702;28;20076;-70
2023/12/30 03:20:59;;;;;;;3.15;1.75;;;;;;;8.13;61.83;99005.31;5148227;27;20047;-70
2023/12/30 03:23:25;;;;;;;2.47;1.73;;;;;;;8.19;61.24;98988.31;5150589;27;20058;-70
2023/12/30 03:25:52;;;;;;;3.05;1.88;;;;;;;7.88;60.86;98939.75;5150060;27;20196;-70
2023/12/30 03:28:19;;;;;;;3.10;1.80;;;;;;;8.26;60.88;98987.06;5150254;27;20185;-70
2023/12/30 03:30:46;;;;;;;2.30;1.60;;;;;;;8.30;60.72;98988.63;5150463;27;20099;-69
2023/12/30 03:33:14;;;;;;;3.00;1.80;;;;;;;8.31;60.42;98996.47;5150425;27;20043;-70
2023/12/30 03:35:41;;;;;;;3.13;2.10;;;;;;;8.39;59.93;98997.84;5150070;27;20054;-70
2023/12/30 03:38:07;;;;;;;2.35;1.67;;;;;;;8.48;59.62;99005.31;5150564;27;20050;-70
2023/12/30 03:40:34;;;;;;;2.90;2.05;;;;;;;8.55;59.50;99002.25;5150202;27;20043;-69
2023/12/30 03:43:01;;;;;;;2.42;1.70;;;;;;;8.57;59.60;98997.75;5151022;27;20058;-69
2023/12/30 03:45:27;;;;;;;2.45;1.92;;;;;;;8.60;59.62;98989.66;5149893;27;20102;-69
2023/12/30 03:47:54;;;;;;;3.00;1.80;;;;;;;8.64;59.52;98979.78;5150076;27;20043;-69
2023/12/30 03:50:22;;;;;;;2.30;1.50;;;;;;;8.69;59.18;99004.16;5150370;27;20047;-69
2023/12/30 03:52:50;;;;;;;2.42;1.63;;;;;;;8.70;58.97;98997.97;5149738;27;20038;-69
2023/12/30 03:55:16;;;;;;;2.40;1.60;;;;;;;8.68;59.42;98995.41;5149956;27;20039;-69
2023/12/30 03:57:43;;;;;;;2.45;1.70;;;;;;;8.74;58.85;98988.06;5149919;27;20051;-69
2023/12/30 04:00:10;;;;;;;4.20;1.60;;;;;;;8.78;58.64;99000.19;5132125;27;20091;-69
2023/12/30 04:02:37;;;;;;;3.05;1.50;;;;;;;8.86;58.56;99000.63;5150028;27;20046;-69
2023/12/30 04:05:04;;;;;;;2.20;1.50;;;;;;;8.87;58.59;98997.06;5149527;27;20043;-69
2023/12/30 04:07:33;;;;;;;2.72;1.90;;;;;;;8.90;58.50;98997.75;5150036;27;20101;-68
2023/12/30 04:09:59;;;;;;;2.28;1.60;;;;;;;8.87;58.70;99011.13;5149686;27;20098;-69
2023/12/30 04:12:26;;;;;;;2.35;1.50;;;;;;;8.90;58.74;99021.53;5149941;27;20187;-69
2023/12/30 04:14:53;;;;;;;2.30;1.58;;;;;;;8.92;58.64;99010.88;5149330;27;20053;-70
2023/12/30 04:17:19;;;;;;;2.40;1.50;;;;;;;8.91;58.80;99017.94;5149793;27;20222;-70
2023/12/30 04:19:46;;;;;;;2.90;1.75;;;;;;;8.91;58.90;99028.53;5149209;27;20253;-69
2023/12/30 04:22:12;;;;;;;2.70;1.60;;;;;;;8.92;58.77;99027.59;5149423;27;20043;-69
2023/12/30 04:24:40;;;;;;;2.50;1.70;;;;;;;8.93;58.55;99033.72;5149426;27;20043;-70
2023/12/30 04:27:07;;;;;;;2.78;1.80;;;;;;;8.97;58.57;99045.84;5149068;27;20055;-70
2023/12/30 04:29:34;;;;;;;3.03;1.80;;;;;;;8.78;58.54;99008.97;5149090;27;20096;-69
2023/12/30 04:32:00;;;;;;;2.67;1.65;;;;;;;8.95;58.65;99040.63;5148291;27;20295;-70
2023/12/30 04:34:27;;;;;;;2.53;1.60;;;;;;;8.96;58.35;99038.84;5149290;27;20043;-69
2023/12/30 04:36:54;;;;;;;2.42;1.77;;;;;;;8.94;58.46;99038.06;5148910;27;20047;-69
2023/12/30 04:39:21;;;;;;;2.75;1.63;;;;;;;8.92;58.34;99039.94;5149131;27;20102;-69
2023/12/30 04:41:49;;;;;;;2.60;1.60;;;;;;;8.94;58.27;99043.34;5148930;27;20043;-69
2023/12/30 04:44:15;;;;;;;2.50;1.80;;;;;;;8.95;58.18;99037.13;5149024;27;20050;-69
2023/12/30 04:46:42;;;;;;;2.60;1.73;;;;;;;8.95;58.21;99047.72;5148702;27;20050;-69
2023/12/30 04:49:10;;;;;;;2.63;1.65;;;;;;;8.99;58.06;99046.59;5148931;27;20043;-70
2023/12/30 04:51:37;;;;;;;2.63;1.80;;;;;;;8.98;58.03;99055.47;5149165;27;20047;-70
2023/12/30 04:54:03;;;;;;;2.15;1.60;;;;;;;8.98;58.15;99052.84;5148738;27;20042;-70
2023/12/30 04:56:30;;;;;;;2.95;2.03;;;;;;;8.98;58.07;99052.84;5148770;27;20043;-69
2023/12/30 04:58:59;;;;;;;2.42;1.70;;;;;;;8.98;58.26;99058.13;5130468;27;20047;-70
2023/12/30 05:01:26;;;;;;;2.60;1.98;;;;;;;8.99;58.31;99055.41;5148651;27;20061;-70
2023/12/30 05:03:54;;;;;;;3.55;1.65;;;;;;;9.07;57.98;99064.69;5130399;27;20043;-70
2023/12/30 05:06:21;;;;;;;2.53;1.75;;;;;;;9.07;58.36;99059.41;5148646;27;20054;-69
2023/12/30 05:08:48;;;;;;;3.45;1.73;;;;;;;8.88;58.43;99033.13;5148907;27;20039;-70
2023/12/30 05:11:14;;;;;;;2.72;1.98;;;;;;;9.07;58.52;99059.41;5148566;27;20035;-70
2023/12/30 05:13:42;;;;;;;2.50;1.73;;;;;;;9.06;58.50;99069.13;5148461;27;20051;-70
2023/12/30 05:16:10;;;;;;;5.10;1.60;;;;;;;9.09;58.61;99068.13;5148108;27;20307;-70
2023/12/30 05:18:37;;;;;;;2.45;1.55;;;;;;;9.05;58.86;99075.34;5148654;27;20213;-70
2023/12/30 05:21:04;;;;;;;2.22;1.50;;;;;;;8.00;59.00;98896.91;5148533;27;20292;-70
2023/12/30 05:23:33;;;;;;;3.90;1.80;;;;;;;9.06;59.01;99079.72;5130027;27;20207;-69
2023/12/30 05:25:59;;;;;;;2.75;1.75;;;;;;;9.07;59.24;99078.78;5148050;27;20055;-70
2023/12/30 05:28:26;;;;;;;2.50;1.58;;;;;;;9.08;59.36;99087.56;5148164;27;20042;-69
2023/12/30 05:30:52;;;;;;;2.40;1.58;;;;;;;9.07;59.60;99072.63;5148141;27;20054;-69
2023/12/30 05:33:20;;;;;;;2.60;1.67;;;;;;;9.09;59.53;99089.28;5148344;27;20300;-69
2023/12/30 05:35:47;;;;;;;2.50;1.60;;;;;;;9.08;59.62;99091.06;5147852;27;20054;-70
2023/12/30 05:38:14;;;;;;;3.97;1.95;;;;;;;9.09;59.76;99095.41;5147696;27;20039;-70
2023/12/30 05:40:39;;;;;;;2.60;1.65;;;;;;;9.09;59.89;99105.13;5147895;27;20043;-69
2023/12/30 05:43:06;;;;;;;2.30;1.55;;;;;;;9.07;60.22;99099.06;5147596;27;20047;-69
2023/12/30 05:45:33;;;;;;;2.95;1.88;;;;;;;9.10;60.16;99102.41;5146990;27;20035;-70
2023/12/30 05:47:59;;;;;;;3.17;1.90;;;;;;;9.11;60.24;99111.19;5147528;27;20300;-70
2023/12/30 05:50:27;;;;;;;2.88;1.80;;;;;;;9.11;60.29;99109.41;5129387;27;20047;-69
2023/12/30 05:52:54;;;;;;;2.95;1.80;;;;;;;9.09;60.39;99115.72;5147407;27;20045;-69
2023/12/30 05:55:21;;;;;;;2.95;1.80;;;;;;;8.90;60.59;99071.75;5147616;27;20043;-70
2023/12/30 05:57:47;;;;;;;2.63;1.90;;;;;;;9.10;60.27;99112.97;5147276;27;20104;-69
2023/12/30 06:00:15;;;;;;;2.67;1.80;;;;;;;9.08;60.49;99108.72;5147319;27;20066;-69
2023/12/30 06:02:42;;;;;;;2.70;1.55;;;;;;;9.09;60.55;99108.63;5147407;27;20039;-70
2023/12/30 06:05:09;;;;;;;2.85;1.65;;;;;;;9.06;60.74;99111.44;5147704;27;20070;-70
2023/12/30 06:07:38;;;;;;;2.80;1.88;;;;;;;9.05;60.80;99109.72;5147420;27;20043;-70
2023/12/30 06:10:06;;;;;;;2.88;1.58;;;;;;;9.03;60.94;99118.66;5147314;27;20073;-70
2023/12/30 06:12:32;;;;;;;2.78;2.17;;;;;;;9.06;60.86;99113.22;5147580;27;20047;-70
2023/12/30 06:14:59;;;;;;;3.20;1.70;;;;;;;9.08;60.76;99120.13;5147259;27;20110;-70
2023/12/30 06:17:25;;;;;;;3.30;1.80;;;;;;;9.06;60.79;99111.44;5147452;27;20096;-70
2023/12/30 06:19:52;;;;;;;3.00;2.03;;;;;;;9.04;60.97;99121.22;5146874;27;20205;-70
2023/12/30 06:22:19;;;;;;;2.85;2.08;;;;;;;9.02;60.83;99122.25;5147347;27;20092;-70
2023/12/30 06:24:47;;;;;;;3.35;2.00;;;;;;;9.03;60.75;99137.19;5147374;27;20054;-69
2023/12/30 06:27:13;;;;;;;2.92;2.10;;;;;;;9.05;60.64;99136.16;5146583;27;20062;-69
2023/12/30 06:29:40;;;;;;;3.17;2.00;;;;;;;8.86;60.58;99107.19;5147039;27;20043;-70
2023/12/30 06:32:07;;;;;;;2.45;1.90;;;;;;;9.06;60.53;99137.88;5147589;27;20262;-69
2023/12/30 06:34:34;;;;;;;3.50;2.08;;;;;;;9.10;60.34;99141.22;5147028;27;20064;-69
2023/12/30 06:37:01;;;;;;;2.65;1.92;;;;;;;9.10;60.49;99136.78;5146983;27;20067;-69
2023/12/30 06:39:27;;;;;;;5.00;2.20;;;;;;;9.06;60.36;99153.72;5146998;27;20302;-70
2023/12/30 06:41:59;;;;;;;2.88;1.77;;;;;;;9.03;60.64;99159.19;5146868;27;20043;-69
2023/12/30 06:44:25;;;;;;;3.13;2.08;;;;;;;8.83;60.72;99125.84;5147193;28;20242;-70
2023/12/30 06:46:52;;;;;;;2.60;1.88;;;;;;;9.02;60.83;99164.53;5146887;28;20042;-70
2023/12/30 06:49:19;;;;;;;4.45;2.05;;;;;;;9.02;60.85;99160.13;5146608;28;20046;-70
2023/12/30 06:51:46;;;;;;;2.72;1.95;;;;;;;9.03;60.68;99164.47;5146901;28;20104;-69
2023/12/30 06:54:13;;;;;;;3.53;2.30;;;;;;;9.03;60.73;99176.81;5146881;28;20050;-69
2023/12/30 06:56:40;;;;;;;3.13;1.95;;;;;;;9.01;60.35;99179.56;5149983;27;20195;-70
2023/12/30 06:59:08;;;;;;;2.72;1.90;;;;;;;9.06;60.64;99187.25;5150740;27;20050;-70
2023/12/30 07:01:39;;;;;;;2.83;1.95;;;;;;;9.09;60.41;99182.66;5150976;27;20191;-69
2023/12/30 07:04:06;;;;;;;3.92;2.17;;;;;;;9.11;60.34;99186.06;5151194;27;20061;-69
2023/12/30 07:06:32;;;;;;;2.70;1.80;;;;;;;9.09;60.56;99182.66;5150875;27;20046;-70
2023/12/30 07:08:59;;;;;;;2.58;1.85;;;;;;;9.11;60.47;99199.28;5151142;27;20199;-69
2023/12/30 07:11:25;;;;;;;3.25;2.03;;;;;;;9.10;60.29;99202.88;5150855;27;20054;-70
2023/12/30 07:13:52;;;;;;;2.80;2.00;;;;;;;9.14;60.20;99212.34;5150538;27;20051;-70
2023/12/30 07:16:20;;;;;;;3.03;1.80;;;;;;;9.20;60.22;99212.06;5132798;27;20298;-69
2023/12/30 07:18:47;;;;;;;3.03;2.00;;;;;;;9.22;59.99;99217.28;5133316;27;20043;-69
2023/12/30 07:21:13;;;;;;;3.55;1.70;;;;;;;9.19;60.09;99222.69;5150697;27;20054;-69
2023/12/30 07:23:40;;;;;;;4.15;2.70;;;;;;;9.22;59.91;99226.06;5150322;27;20291;-69
2023/12/30 07:26:07;;;;;;;2.90;1.77;;;;;;;9.26;59.79;99224.97;5150234;27;20058;-70
2023/12/30 07:28:33;;;;;;;2.95;1.83;;;;;;;9.25;59.85;99228.56;5150249;27;20192;-70
2023/12/30 07:31:00;;;;;;;3.53;2.10;;;;;;;9.23;59.80;99227.78;5150701;27;20112;-69
2023/12/30 07:33:28;;;;;;;3.65;2.05;;;;;;;9.21;59.86;99221.72;5150433;27;20058;-69
2023/12/30 07:35:56;;;;;;;3.08;2.00;;;;;;;9.24;59.70;99242.72;5150371;27;20329;-70
2023/12/30 07:38:23;;;;;;;3.17;1.95;;;;;;;9.26;59.58;99245.28;5150075;27;20043;-70
2023/12/30 07:40:49;;;;;;;3.95;2.08;;;;;;;9.23;59.64;99248.06;5149978;27;20291;-70
2023/12/30 07:43:16;;;;;;;2.90;1.90;;;;;;;9.26;59.42;99255.84;5150187;27;20051;-69
2023/12/30 07:45:42;;;;;;;3.88;2.08;;;;;;;9.26;59.29;99239.97;5150461;27;20106;-69
2023/12/30 07:48:09;;;;;;;3.05;1.80;;;;;;;9.27;59.28;99242.56;5150130;27;20042;-70
2023/12/30 07:50:37;;;;;;;3.50;2.00;;;;;;;9.29;59.22;99245.13;5150048;27;20050;-70
2023/12/30 07:53:04;;;;;;;4.13;2.35;;;;;;;9.27;59.19;99239.91;5149913;27;20038;-69
2023/12/30 07:55:31;;;;;;;2.80;2.10;;;;;;;9.27;59.22;99242.56;5150025;27;20203;-69
2023/12/30 07:57:57;;;;;;;2.40;1.83;;;;;;;9.28;59.07;99243.41;5149683;27;20055;-69
2023/12/30 08:00:24;;;;;;;3.28;2.20;;;;;;;9.25;58.97;99240.91;5149607;27;20049;-69
2023/12/30 08:02:50;;;;;;;4.07;2.38;;;;;;;9.12;58.63;99219.50;5149906;27;20043;-70
2023/12/30 08:05:18;;;;;;;4.35;2.22;;;;;;;9.30;58.42;99239.75;5149756;27;20042;-70
2023/12/30 08:07:46;;;;;;;2.60;1.85;;;;;;;9.32;58.61;99239.66;5148581;27;20077;-70
2023/12/30 08:10:12;;;;;;;2.60;1.80;;;;;;;9.33;58.70;99244.03;5149421;27;20043;-70
2023/12/30 08:12:39;;;;;;;2.72;1.85;;;;;;;9.33;58.57;99254.59;5149923;27;20055;-69
2023/12/30 08:15:07;;;;;;;2.63;1.90;;;;;;;8.64;58.73;99141.78;5131823;27;20039;-70
2023/12/30 08:17:34;;;;;;;3.08;1.98;;;;;;;9.31;58.55;99254.69;5149337;27;20061;-69
2023/12/30 08:20:02;;;;;;;3.03;2.00;;;;;;;9.21;58.72;99232.28;5149193;27;20051;-69
2023/12/30 08:22:29;;;;;;;2.92;2.00;;;;;;;9.38;58.79;99257.00;5148766;27;20155;-70
2023/12/30 08:24:58;;;;;;;3.10;2.20;;;;;;;9.38;58.73;99252.56;5149616;27;20187;-69
2023/12/30 08:27:25;;;;;;;3.92;2.35;;;;;;;9.38;58.63;99242.00;5148895;27;20054;-70
2023/12/30 08:29:51;;;;;;;3.22;1.92;;;;;;;9.39;58.73;99256.06;5149273;27;20053;-70
2023/12/30 08:32:18;;;;;;;3.53;2.03;;;;;;;9.41;58.82;99264.81;5148788;27;20047;-70
2023/12/30 08:34:45;;;;;;;2.60;1.98;;;;;;;9.42;58.85;99264.75;5149521;27;20050;-69
2023/12/30 08:37:11;;;;;;;2.60;1.95;;;;;;;9.44;58.57;99268.16;5149054;27;20192;-70
2023/12/30 08:39:38;;;;;;;4.25;2.10;;;;;;;8.78;58.65;99148.16;5130533;27;20046;-69
2023/12/30 08:42:07;;;;;;;2.70;1.83;;;;;;;9.48;58.65;99282.09;5148487;27;20088;-69
2023/12/30 08:44:37;;;;;;;3.25;2.30;;;;;;;9.50;58.67;99275.78;5148880;27;20092;-70
2023/12/30 08:47:04;;;;;;;3.78;1.90;;;;;;;9.55;58.61;99273.75;5148895;27;20297;-70
2023/12/30 08:49:31;;;;;;;3.08;2.15;;;;;;;9.56;58.56;99282.53;5130656;27;20067;-69
2023/12/30 08:51:58;;;;;;;2.83;2.00;;;;;;;9.58;58.35;99273.59;5148604;27;20047;-70
2023/12/30 08:54:25;;;;;;;3.00;2.20;;;;;;;9.59;58.36;99277.94;5148546;27;20067;-70
2023/12/30 08:56:53;;;;;;;2.90;1.98;;;;;;;9.62;58.48;99282.22;5148733;27;20051;-70
2023/12/30 08:59:22;;;;;;;3.00;2.08;;;;;;;9.67;58.03;99279.34;5148452;27;20054;-70
2023/12/30 09:01:48;;;;;;;2.95;1.85;;;;;;;9.70;58.04;99287.97;5148635;27;20244;-70
2023/12/30 09:04:15;;;;;;;2.78;1.90;;;;;;;9.73;58.36;99286.94;5148608;27;20157;-69
2023/12/30 09:06:42;;;;;;;2.50;1.65;;;;;;;9.75;57.99;99283.28;5130225;27;20035;-70
2023/12/30 09:09:08;;;;;;;3.05;2.22;;;;;;;9.81;58.01;99290.91;5148141;27;20049;-70
2023/12/30 09:11:38;;;;;;;2.90;2.30;;;;;;;9.81;58.07;99288.25;5147694;27;20046;-70
2023/12/30 09:14:05;;;;;;;3.20;2.33;;;;;;;9.88;57.83;99278.19;5148096;27;20034;-70
2023/12/30 09:16:33;;;;;;;3.15;1.80;;;;;;;9.96;57.75;99291.88;5147919;27;20067;-69
2023/12/30 09:19:00;;;;;;;3.00;1.95;;;;;;;9.82;57.68;99270.59;5148225;27;20345;-69
2023/12/30 09:21:27;;;;;;;3.00;2.10;;;;;;;9.99;57.35;99278.47;5148189;27;20068;-70
2023/12/30 09:23:52;;;;;;;3.22;1.90;;;;;;;10.11;56.82;99274.31;5147742;27;20087;-70
2023/12/30 09:26:19;;;;;;;3.33;2.05;;;;;;;10.11;56.54;99301.63;5147944;27;20219;-70
2023/12/30 09:28:45;;;;;;;4.13;1.73;;;;;;;10.16;56.73;99283.72;5147852;27;20238;-70
2023/12/30 09:31:12;;;;;;;2.72;1.70;;;;;;;10.20;56.54;99281.75;5148063;27;20042;-70
2023/12/30 09:33:40;;;;;;;2.72;1.90;;;;;;;10.17;56.18;99256.28;5147755;27;20046;-70
2023/12/30 09:36:07;;;;;;;2.60;1.95;;;;;;;9.87;55.71;99187.34;5147861;27;20044;-70
2023/12/30 09:38:34;;;;;;;3.33;2.00;;;;;;;10.51;55.30;99271.16;5147914;27;20217;-70
2023/12/30 09:41:01;;;;;;;2.47;1.73;;;;;;;10.52;55.59;99270.22;5147377;27;20042;-69
2023/12/30 09:43:29;;;;;;;2.85;1.75;;;;;;;10.51;55.29;99260.56;5147898;27;20035;-69
2023/12/30 09:45:57;;;;;;;2.75;1.80;;;;;;;10.39;55.34;99249.78;5148298;27;20039;-69
2023/12/30 09:48:25;;;;;;;3.35;2.03;;;;;;;10.58;54.72;99274.31;5147500;27;20100;-69
2023/12/30 09:50:55;;;;;;;3.03;1.85;;;;;;;10.67;55.12;99276.44;5129192;27;20059;-70
2023/12/30 09:53:22;;;;;;;3.05;1.90;;;;;;;10.76;54.70;99267.97;5147387;27;20084;-70
2023/12/30 09:55:50;;;;;;;3.42;1.88;;;;;;;10.87;54.50;99276.19;5147859;27;20057;-70
2023/12/30 09:58:18;;;;;;;2.97;1.85;;;;;;;11.01;54.39;99267.44;5147194;27;20060;-70
2023/12/30 10:00:44;;;;;;;2.67;1.70;;;;;;;11.10;54.14;99251.00;5147194;27;20043;-69
2023/12/30 10:03:12;;;;;;;3.28;2.08;;;;;;;11.19;54.11;99257.56;5147631;27;20100;-69
2023/12/30 10:05:39;;;;;;;3.60;2.45;;;;;;;11.33;53.66;99262.03;5148134;27;20069;-69
2023/12/30 10:08:08;;;;;;;3.67;2.10;;;;;;;11.42;52.96;99272.09;5147323;27;20054;-70
2023/12/30 10:10:46;;;;;;;3.40;1.98;;;;;;;11.49;52.91;99279.59;5147221;27;20051;-70
2023/12/30 10:13:14;;;;;;;2.60;1.70;;;;;;;11.45;52.76;99279.88;5147603;27;20088;-70
2023/12/30 10:15:42;;;;;;;2.88;1.73;;;;;;;11.52;52.26;99283.88;5147074;27;20096;-70
2023/12/30 10:18:09;;;;;;;2.90;2.08;;;;;;;11.56;51.96;99265.00;5147081;27;20043;-70
2023/12/30 10:20:39;;;;;;;3.88;2.25;;;;;;;11.62;52.36;99270.91;5147132;27;20259;-70
2023/12/30 10:23:07;;;;;;;2.33;1.63;;;;;;;11.41;51.95;99257.13;5128806;27;20043;-70
2023/12/30 10:25:34;;;;;;;3.05;1.70;;;;;;;11.52;51.60;99282.06;5146771;27;20218;-70
2023/12/30 10:28:01;;;;;;;2.58;1.65;;;;;;;11.56;52.11;99290.72;5128493;27;20088;-70
2023/12/30 10:30:30;;;;;;;2.38;1.67;;;;;;;11.60;52.07;99283.41;5146489;27;20237;-70
2023/12/30 10:33:06;;;;;;;2.67;1.75;;;;;;;11.55;51.99;99283.69;5146722;27;20295;-70
2023/12/30 10:35:33;;;;;;;2.70;1.60;;;;;;;11.50;51.76;99283.09;5146967;27;20105;-70
2023/12/30 10:38:01;;;;;;;3.22;1.70;;;;;;;11.55;52.04;99292.50;5147151;27;20043;-69
2023/12/30 10:40:29;;;;;;;3.35;1.60;;;;;;;11.35;51.68;99274.25;5129255;27;20039;-68
2023/12/30 10:42:57;;;;;;;2.50;1.58;;;;;;;11.55;52.21;99296.97;5146476;27;20303;-69
2023/12/30 10:45:23;;;;;;;2.85;1.88;;;;;;;11.57;51.70;99295.06;5146893;27;20063;-69
2023/12/30 10:47:51;;;;;;;2.42;1.40;;;;;;;11.52;51.81;99295.34;5146763;28;20217;-70
2023/12/30 10:50:20;;;;;;;2.55;1.90;;;;;;;11.55;51.75;99296.97;5146443;28;20062;-70
2023/12/30 10:52:52;;;;;;;3.25;1.60;;;;;;;11.55;52.01;99315.53;5146806;28;20106;-70
2023/12/30 10:55:19;;;;;;;3.20;1.70;;;;;;;11.36;51.67;99280.44;5147089;28;20039;-70
2023/12/30 10:57:52;;;;;;;2.45;1.50;;;;;;;11.40;51.80;99290.75;5146830;28;20104;-70
2023/12/30 11:00:21;;;;;;;2.63;1.70;;;;;;;11.41;52.07;99276.56;5128901;28;20047;-70
2023/12/30 11:02:49;;;;;;;3.58;1.90;;;;;;;11.39;52.21;99282.91;5146631;28;20098;-70
2023/12/30 11:05:24;;;;;;;6.85;4.43;;;;;;;11.32;52.02;99265.63;5146624;28;20042;-70
2023/12/30 11:07:51;;;;;;;3.08;2.03;;;;;;;11.29;52.18;99289.69;5146605;28;20059;-70
2023/12/30 11:10:18;;;;;;;5.22;2.30;;;;;;;11.28;52.25;99280.88;5146586;28;20054;-70
2023/12/30 11:12:45;;;;;;;2.92;2.00;;;;;;;11.33;52.10;99277.97;5146552;28;20043;-70
2023/12/30 11:15:29;;;;;;;3.20;2.00;;;;;;;11.36;52.02;99280.44;5146463;28;20084;-70
2023/12/30 11:17:57;;;;;;;2.90;1.98;;;;;;;11.43;51.93;99271.16;5144263;28;20066;-70
2023/12/30 11:20:29;;;;;;;3.58;2.00;;;;;;;11.43;52.16;99265.84;5146588;28;20042;-70
2023/12/30 11:22:59;;;;;;;3.40;1.88;;;;;;;11.04;52.05;99203.63;5146393;28;20054;-70
2023/12/30 11:25:34;;;;;;;3.17;1.80;;;;;;;11.23;52.25;99243.16;5146382;28;20051;-70
2023/12/30 11:28:13;;;;;;;2.78;1.80;;;;;;;11.53;52.15;99256.38;5146389;28;20079;-69
2023/12/30 11:30:43;;;;;;;4.13;1.90;;;;;;;11.46;52.10;99261.22;5146202;28;20256;-69
2023/12/30 11:33:10;;;;;;;3.00;2.08;;;;;;;10.74;52.08;99145.28;5146456;28;20199;-70
2023/12/30 11:35:37;;;;;;;3.75;1.80;;;;;;;11.42;52.03;99265.00;5146221;28;20039;-70
2023/12/30 11:38:08;;;;;;;3.15;1.77;;;;;;;11.38;52.03;99273.22;5146413;28;20043;-69